Captain Cook, HI

10:04 AM HST on October 25, 2014 (GMT -1000)
Captain Cook | Change Station
CLOSE
Current Station
Personal Weather Station
Location: Captain Cook, HI
Elevation: 915 ft
Nearby Weather Stations

Elev 915 ft 19.31 °N, 155.88 °W | Updated 4 minutes ago

Clear
Clear
77.6 °F
Feels Like 80 °F
N
1.0
Wind Variable Wind from East
Gusts 5.0 mph

Today
High -- | Low -- °F
--% Chance of Precip.
Yesterday
High -- | Low -- °F
Precip. -- in
6:21 AM 5:53 PM
Waxing Crescent, 4% visible
Pressure 30.01 in
Visibility 10.0 miles
Clouds Clear
Heat Index 80 °F
Dew Point 68 °F
Humidity 73%
Rainfall 0.00 in
Snow Depth Not available.
UV 6.0 out of 12
Pollen Not available.
Air Quality Not available.
Flu Activity Sporadic
METAR PHKO 251953Z 25005KT 10SM CLR 28/20 A3001 RMK AO2 SLP162 T02830200

More Conditions Fewer Conditions

Pressure 30.01 in
Visibility 10.0 miles
Clouds Clear
Heat Index 80 °F
Dew Point 68 °F
Humidity 73%
Rainfall 0.00 in
Snow Depth Not available.
UV 6.0 out of 12
Pollen Not available.
Air Quality Not available.
Flu Activity Sporadic
METAR PHKO 251953Z 25005KT 10SM CLR 28/20 A3001 RMK AO2 SLP162 T02830200

More Conditions Fewer Conditions

10-Day Weather Forecast

Almanac

Astronomy

Oct. 25, 2014 Rise Set
Actual Time 6:21 AM HST 5:53 PM HST
Civil Twilight 5:58 AM HST 6:15 PM HST
Nautical Twilight 5:33 AM HST 6:41 PM HST
Astronomical Twilight 5:07 AM HST 7:07 PM HST
Moon 8:00 AM HST 7:36 PM HST
Length of Visible Light 12h 16m
Length of Day
11h 32m
Tomorrow will be 1m 0s shorter.
Waxing Crescent, 4% of the Moon is Illuminated
Today
Waxing Crescent
Oct 30
First Quarter
Nov 6
Full
Nov 14
Last Quarter
Nov 22
New

Today's Extremes

State Highs State Lows

Community

WunderPhotos

Upload Photos

1,764,976 photos uploaded!

Nearby

Snow Depth

Station Depth Elevation
No new snow has been reported.

Earthquake Activity

City Distance Mag. Time & Date
No recent earthquake activity has been reported nearby.
Minimum magnitude displayed is 2.5.

Coastal Water Temperatures

Place Temperature
No Stations Reporting

Nearby Weather Stations